sensor_id;sensor_type;location;lat;lon;timestamp;P1;durP1;ratioP1;P2;durP2;ratioP2
10904;SDS011;5505;51.450;9.254;2022-12-07T00:00:13;15.13;;;12.33;;
10904;SDS011;5505;51.450;9.254;2022-12-07T00:03:01;15.90;;;12.17;;
10904;SDS011;5505;51.450;9.254;2022-12-07T00:05:47;14.03;;;12.13;;
10904;SDS011;5505;51.450;9.254;2022-12-07T00:08:34;14.40;;;11.53;;
10904;SDS011;5505;51.450;9.254;2022-12-07T00:11:23;14.03;;;11.77;;
10904;SDS011;5505;51.450;9.254;2022-12-07T00:14:11;19.03;;;13.70;;
10904;SDS011;5505;51.450;9.254;2022-12-07T00:16:59;15.03;;;12.40;;
10904;SDS011;5505;51.450;9.254;2022-12-07T00:19:46;17.87;;;13.70;;
10904;SDS011;5505;51.450;9.254;2022-12-07T00:22:32;21.70;;;15.83;;
10904;SDS011;5505;51.450;9.254;2022-12-07T00:25:19;19.90;;;14.30;;
10904;SDS011;5505;51.450;9.254;2022-12-07T00:28:07;18.93;;;14.33;;
10904;SDS011;5505;51.450;9.254;2022-12-07T00:30:59;42.63;;;25.23;;
10904;SDS011;5505;51.450;9.254;2022-12-07T00:33:46;92.13;;;58.00;;
10904;SDS011;5505;51.450;9.254;2022-12-07T00:36:34;25.63;;;19.80;;
10904;SDS011;5505;51.450;9.254;2022-12-07T00:39:21;16.90;;;13.67;;
10904;SDS011;5505;51.450;9.254;2022-12-07T00:42:08;16.87;;;13.67;;
10904;SDS011;5505;51.450;9.254;2022-12-07T00:44:56;16.17;;;11.60;;
10904;SDS011;5505;51.450;9.254;2022-12-07T00:47:43;14.70;;;11.53;;
10904;SDS011;5505;51.450;9.254;2022-12-07T00:50:29;16.27;;;12.80;;
10904;SDS011;5505;51.450;9.254;2022-12-07T00:53:16;16.53;;;12.27;;
10904;SDS011;5505;51.450;9.254;2022-12-07T00:56:04;17.17;;;12.83;;
10904;SDS011;5505;51.450;9.254;2022-12-07T00:58:52;15.07;;;12.03;;
10904;SDS011;5505;51.450;9.254;2022-12-07T01:01:42;16.77;;;12.53;;
10904;SDS011;5505;51.450;9.254;2022-12-07T01:04:28;15.47;;;12.07;;
10904;SDS011;5505;51.450;9.254;2022-12-07T01:07:15;14.07;;;11.73;;
10904;SDS011;5505;51.450;9.254;2022-12-07T01:10:02;15.40;;;12.20;;
10904;SDS011;5505;51.450;9.254;2022-12-07T01:12:49;14.60;;;11.47;;
10904;SDS011;5505;51.450;9.254;2022-12-07T01:15:38;15.87;;;12.53;;
10904;SDS011;5505;51.450;9.254;2022-12-07T01:18:27;14.80;;;11.83;;
10904;SDS011;5505;51.450;9.254;2022-12-07T01:21:15;14.87;;;12.00;;
10904;SDS011;5505;51.450;9.254;2022-12-07T01:24:06;15.87;;;11.63;;
10904;SDS011;5505;51.450;9.254;2022-12-07T01:26:56;14.50;;;11.30;;
10904;SDS011;5505;51.450;9.254;2022-12-07T01:29:43;15.47;;;12.17;;
10904;SDS011;5505;51.450;9.254;2022-12-07T01:32:29;15.03;;;12.03;;
10904;SDS011;5505;51.450;9.254;2022-12-07T01:35:18;16.50;;;12.07;;
10904;SDS011;5505;51.450;9.254;2022-12-07T01:38:04;16.03;;;12.03;;
10904;SDS011;5505;51.450;9.254;2022-12-07T01:40:54;15.63;;;12.17;;
10904;SDS011;5505;51.450;9.254;2022-12-07T01:47:01;14.20;;;11.93;;
10904;SDS011;5505;51.450;9.254;2022-12-07T01:49:49;14.37;;;11.87;;
10904;SDS011;5505;51.450;9.254;2022-12-07T01:52:37;15.60;;;11.37;;
10904;SDS011;5505;51.450;9.254;2022-12-07T01:55:25;16.43;;;12.23;;
10904;SDS011;5505;51.450;9.254;2022-12-07T01:58:13;16.00;;;12.43;;
10904;SDS011;5505;51.450;9.254;2022-12-07T02:01:00;14.87;;;11.93;;
10904;SDS011;5505;51.450;9.254;2022-12-07T02:03:47;14.80;;;11.13;;
10904;SDS011;5505;51.450;9.254;2022-12-07T02:06:35;14.13;;;11.90;;
10904;SDS011;5505;51.450;9.254;2022-12-07T02:09:24;14.77;;;11.47;;
10904;SDS011;5505;51.450;9.254;2022-12-07T02:12:11;15.23;;;12.53;;
10904;SDS011;5505;51.450;9.254;2022-12-07T02:14:58;16.63;;;12.37;;
10904;SDS011;5505;51.450;9.254;2022-12-07T02:17:47;15.80;;;11.37;;
10904;SDS011;5505;51.450;9.254;2022-12-07T02:20:42;14.00;;;10.83;;
10904;SDS011;5505;51.450;9.254;2022-12-07T02:23:53;14.67;;;11.63;;
10904;SDS011;5505;51.450;9.254;2022-12-07T02:30:23;17.37;;;13.20;;
10904;SDS011;5505;51.450;9.254;2022-12-07T02:33:15;16.37;;;13.30;;
10904;SDS011;5505;51.450;9.254;2022-12-07T02:36:06;17.33;;;13.43;;
10904;SDS011;5505;51.450;9.254;2022-12-07T02:38:58;17.43;;;13.70;;
10904;SDS011;5505;51.450;9.254;2022-12-07T02:41:49;18.53;;;14.83;;
10904;SDS011;5505;51.450;9.254;2022-12-07T02:44:40;16.47;;;14.03;;
10904;SDS011;5505;51.450;9.254;2022-12-07T02:47:29;19.53;;;14.43;;
10904;SDS011;5505;51.450;9.254;2022-12-07T02:50:18;19.70;;;15.33;;
10904;SDS011;5505;51.450;9.254;2022-12-07T02:56:18;20.10;;;15.47;;
10904;SDS011;5505;51.450;9.254;2022-12-07T02:59:11;22.03;;;17.00;;
10904;SDS011;5505;51.450;9.254;2022-12-07T03:02:06;20.60;;;16.03;;
10904;SDS011;5505;51.450;9.254;2022-12-07T03:05:08;22.50;;;16.27;;
10904;SDS011;5505;51.450;9.254;2022-12-07T03:08:06;19.77;;;16.23;;
10904;SDS011;5505;51.450;9.254;2022-12-07T03:11:00;19.23;;;15.77;;
10904;SDS011;5505;51.450;9.254;2022-12-07T03:13:53;21.80;;;17.63;;
10904;SDS011;5505;51.450;9.254;2022-12-07T03:16:46;19.53;;;16.47;;
10904;SDS011;5505;51.450;9.254;2022-12-07T03:19:38;20.83;;;16.67;;
10904;SDS011;5505;51.450;9.254;2022-12-07T03:22:29;20.40;;;17.13;;
10904;SDS011;5505;51.450;9.254;2022-12-07T03:25:19;20.37;;;17.13;;
10904;SDS011;5505;51.450;9.254;2022-12-07T03:28:05;21.43;;;17.10;;
10904;SDS011;5505;51.450;9.254;2022-12-07T03:30:56;23.13;;;16.60;;
10904;SDS011;5505;51.450;9.254;2022-12-07T03:33:47;18.77;;;15.70;;
10904;SDS011;5505;51.450;9.254;2022-12-07T03:36:40;20.47;;;15.80;;
10904;SDS011;5505;51.450;9.254;2022-12-07T03:39:33;22.97;;;16.57;;
10904;SDS011;5505;51.450;9.254;2022-12-07T03:42:23;20.40;;;16.07;;
10904;SDS011;5505;51.450;9.254;2022-12-07T03:45:10;20.10;;;15.90;;
10904;SDS011;5505;51.450;9.254;2022-12-07T03:48:01;18.90;;;15.07;;
10904;SDS011;5505;51.450;9.254;2022-12-07T03:50:52;18.73;;;15.20;;
10904;SDS011;5505;51.450;9.254;2022-12-07T03:53:44;21.47;;;15.30;;
10904;SDS011;5505;51.450;9.254;2022-12-07T03:56:38;18.37;;;14.87;;
10904;SDS011;5505;51.450;9.254;2022-12-07T03:59:26;19.63;;;15.27;;
10904;SDS011;5505;51.450;9.254;2022-12-07T04:02:14;20.63;;;15.03;;
10904;SDS011;5505;51.450;9.254;2022-12-07T04:05:01;19.17;;;15.50;;
10904;SDS011;5505;51.450;9.254;2022-12-07T04:07:49;20.17;;;14.07;;
10904;SDS011;5505;51.450;9.254;2022-12-07T04:10:36;19.17;;;14.73;;
10904;SDS011;5505;51.450;9.254;2022-12-07T04:13:24;19.27;;;15.07;;
10904;SDS011;5505;51.450;9.254;2022-12-07T04:16:10;17.63;;;13.10;;
10904;SDS011;5505;51.450;9.254;2022-12-07T04:18:57;18.57;;;14.70;;
10904;SDS011;5505;51.450;9.254;2022-12-07T04:21:44;17.00;;;13.67;;
10904;SDS011;5505;51.450;9.254;2022-12-07T04:24:31;17.57;;;13.27;;
10904;SDS011;5505;51.450;9.254;2022-12-07T04:27:19;20.23;;;13.50;;
10904;SDS011;5505;51.450;9.254;2022-12-07T04:30:07;15.87;;;12.97;;
10904;SDS011;5505;51.450;9.254;2022-12-07T04:32:54;16.47;;;13.33;;
10904;SDS011;5505;51.450;9.254;2022-12-07T04:35:42;19.17;;;12.60;;
10904;SDS011;5505;51.450;9.254;2022-12-07T04:38:28;16.90;;;12.17;;
10904;SDS011;5505;51.450;9.254;2022-12-07T04:41:15;17.97;;;12.33;;
10904;SDS011;5505;51.450;9.254;2022-12-07T04:44:02;16.07;;;12.33;;
10904;SDS011;5505;51.450;9.254;2022-12-07T04:46:53;16.23;;;12.73;;
10904;SDS011;5505;51.450;9.254;2022-12-07T04:49:42;17.70;;;12.60;;
10904;SDS011;5505;51.450;9.254;2022-12-07T04:52:28;15.00;;;12.13;;
10904;SDS011;5505;51.450;9.254;2022-12-07T04:55:15;18.07;;;12.13;;
10904;SDS011;5505;51.450;9.254;2022-12-07T04:58:03;16.87;;;11.83;;
10904;SDS011;5505;51.450;9.254;2022-12-07T05:00:53;16.27;;;12.10;;
10904;SDS011;5505;51.450;9.254;2022-12-07T05:03:41;15.53;;;11.67;;
10904;SDS011;5505;51.450;9.254;2022-12-07T05:06:28;19.73;;;12.37;;
10904;SDS011;5505;51.450;9.254;2022-12-07T05:09:15;16.23;;;12.67;;
10904;SDS011;5505;51.450;9.254;2022-12-07T05:12:02;19.00;;;13.70;;
10904;SDS011;5505;51.450;9.254;2022-12-07T05:14:49;16.80;;;11.73;;
10904;SDS011;5505;51.450;9.254;2022-12-07T05:17:35;15.73;;;11.70;;
10904;SDS011;5505;51.450;9.254;2022-12-07T05:20:24;14.17;;;11.20;;
10904;SDS011;5505;51.450;9.254;2022-12-07T05:23:10;15.17;;;11.27;;
10904;SDS011;5505;51.450;9.254;2022-12-07T05:25:57;16.47;;;11.63;;
10904;SDS011;5505;51.450;9.254;2022-12-07T05:28:44;18.20;;;11.50;;
10904;SDS011;5505;51.450;9.254;2022-12-07T05:31:31;16.37;;;10.90;;
10904;SDS011;5505;51.450;9.254;2022-12-07T05:34:19;15.70;;;10.30;;
10904;SDS011;5505;51.450;9.254;2022-12-07T05:37:07;15.43;;;10.30;;
10904;SDS011;5505;51.450;9.254;2022-12-07T05:39:54;18.20;;;10.73;;
10904;SDS011;5505;51.450;9.254;2022-12-07T05:42:40;14.40;;;10.30;;
10904;SDS011;5505;51.450;9.254;2022-12-07T05:45:27;16.13;;;11.57;;
10904;SDS011;5505;51.450;9.254;2022-12-07T05:48:14;12.67;;;9.97;;
10904;SDS011;5505;51.450;9.254;2022-12-07T05:51:01;15.43;;;10.30;;
10904;SDS011;5505;51.450;9.254;2022-12-07T05:53:49;14.70;;;10.27;;
10904;SDS011;5505;51.450;9.254;2022-12-07T05:56:36;12.93;;;10.37;;
10904;SDS011;5505;51.450;9.254;2022-12-07T05:59:23;14.37;;;9.73;;
10904;SDS011;5505;51.450;9.254;2022-12-07T06:02:13;13.83;;;9.40;;
10904;SDS011;5505;51.450;9.254;2022-12-07T06:05:00;13.50;;;9.33;;
10904;SDS011;5505;51.450;9.254;2022-12-07T06:07:47;16.03;;;8.80;;
10904;SDS011;5505;51.450;9.254;2022-12-07T06:10:35;14.77;;;9.80;;
10904;SDS011;5505;51.450;9.254;2022-12-07T06:13:22;16.37;;;9.60;;
10904;SDS011;5505;51.450;9.254;2022-12-07T06:16:08;16.20;;;10.03;;
10904;SDS011;5505;51.450;9.254;2022-12-07T06:18:55;18.63;;;9.40;;
10904;SDS011;5505;51.450;9.254;2022-12-07T06:21:41;14.37;;;9.17;;
10904;SDS011;5505;51.450;9.254;2022-12-07T06:24:28;15.73;;;9.83;;
10904;SDS011;5505;51.450;9.254;2022-12-07T06:27:16;14.30;;;9.20;;
10904;SDS011;5505;51.450;9.254;2022-12-07T06:30:04;15.50;;;8.67;;
10904;SDS011;5505;51.450;9.254;2022-12-07T06:32:53;13.40;;;9.03;;
10904;SDS011;5505;51.450;9.254;2022-12-07T06:35:40;13.87;;;9.20;;
10904;SDS011;5505;51.450;9.254;2022-12-07T06:38:27;15.80;;;8.33;;
10904;SDS011;5505;51.450;9.254;2022-12-07T06:41:14;13.17;;;8.37;;
10904;SDS011;5505;51.450;9.254;2022-12-07T06:44:02;14.17;;;7.90;;
10904;SDS011;5505;51.450;9.254;2022-12-07T06:46:49;10.97;;;7.67;;
10904;SDS011;5505;51.450;9.254;2022-12-07T06:49:36;15.93;;;9.03;;
10904;SDS011;5505;51.450;9.254;2022-12-07T06:52:23;14.93;;;8.40;;
10904;SDS011;5505;51.450;9.254;2022-12-07T06:55:10;12.37;;;8.80;;
10904;SDS011;5505;51.450;9.254;2022-12-07T06:57:57;13.27;;;8.37;;
10904;SDS011;5505;51.450;9.254;2022-12-07T07:00:45;13.93;;;8.67;;
10904;SDS011;5505;51.450;9.254;2022-12-07T07:03:33;14.17;;;8.50;;
10904;SDS011;5505;51.450;9.254;2022-12-07T07:06:20;11.60;;;7.47;;
10904;SDS011;5505;51.450;9.254;2022-12-07T07:09:07;13.47;;;7.97;;
10904;SDS011;5505;51.450;9.254;2022-12-07T07:11:54;11.63;;;7.93;;
10904;SDS011;5505;51.450;9.254;2022-12-07T07:14:41;11.60;;;7.97;;
10904;SDS011;5505;51.450;9.254;2022-12-07T07:17:29;14.73;;;8.03;;
10904;SDS011;5505;51.450;9.254;2022-12-07T07:20:16;11.97;;;7.93;;
10904;SDS011;5505;51.450;9.254;2022-12-07T07:23:03;14.23;;;8.50;;
10904;SDS011;5505;51.450;9.254;2022-12-07T07:25:50;14.07;;;8.40;;
10904;SDS011;5505;51.450;9.254;2022-12-07T07:28:37;12.93;;;8.67;;
10904;SDS011;5505;51.450;9.254;2022-12-07T07:31:24;11.97;;;8.00;;
10904;SDS011;5505;51.450;9.254;2022-12-07T07:34:12;13.23;;;8.10;;
10904;SDS011;5505;51.450;9.254;2022-12-07T07:36:59;14.73;;;8.13;;
10904;SDS011;5505;51.450;9.254;2022-12-07T07:39:46;18.20;;;8.03;;
10904;SDS011;5505;51.450;9.254;2022-12-07T07:42:33;13.67;;;8.73;;
10904;SDS011;5505;51.450;9.254;2022-12-07T07:45:20;14.23;;;8.50;;
10904;SDS011;5505;51.450;9.254;2022-12-07T07:48:08;12.90;;;8.60;;
10904;SDS011;5505;51.450;9.254;2022-12-07T07:50:56;12.17;;;8.60;;
10904;SDS011;5505;51.450;9.254;2022-12-07T07:53:43;14.60;;;9.80;;
10904;SDS011;5505;51.450;9.254;2022-12-07T07:56:30;14.53;;;9.40;;
10904;SDS011;5505;51.450;9.254;2022-12-07T07:59:16;13.70;;;8.90;;
10904;SDS011;5505;51.450;9.254;2022-12-07T08:02:03;17.00;;;9.27;;
10904;SDS011;5505;51.450;9.254;2022-12-07T08:04:50;15.20;;;8.83;;
10904;SDS011;5505;51.450;9.254;2022-12-07T08:07:38;14.70;;;9.03;;
10904;SDS011;5505;51.450;9.254;2022-12-07T08:10:25;12.13;;;7.93;;
10904;SDS011;5505;51.450;9.254;2022-12-07T08:13:13;11.20;;;7.63;;
10904;SDS011;5505;51.450;9.254;2022-12-07T08:16:03;16.27;;;8.67;;
10904;SDS011;5505;51.450;9.254;2022-12-07T08:18:50;12.87;;;8.83;;
10904;SDS011;5505;51.450;9.254;2022-12-07T08:21:37;13.07;;;8.47;;
10904;SDS011;5505;51.450;9.254;2022-12-07T08:24:25;14.57;;;9.37;;
10904;SDS011;5505;51.450;9.254;2022-12-07T08:27:12;18.47;;;11.00;;
10904;SDS011;5505;51.450;9.254;2022-12-07T08:29:59;13.30;;;9.03;;
10904;SDS011;5505;51.450;9.254;2022-12-07T08:32:46;15.27;;;9.57;;
10904;SDS011;5505;51.450;9.254;2022-12-07T08:35:34;15.20;;;9.57;;
10904;SDS011;5505;51.450;9.254;2022-12-07T08:38:20;13.97;;;9.37;;
10904;SDS011;5505;51.450;9.254;2022-12-07T08:41:09;14.90;;;8.13;;
10904;SDS011;5505;51.450;9.254;2022-12-07T08:43:56;13.60;;;7.70;;
10904;SDS011;5505;51.450;9.254;2022-12-07T08:46:44;14.90;;;7.77;;
10904;SDS011;5505;51.450;9.254;2022-12-07T08:49:36;11.27;;;6.57;;
10904;SDS011;5505;51.450;9.254;2022-12-07T08:52:25;12.53;;;6.30;;
10904;SDS011;5505;51.450;9.254;2022-12-07T08:55:12;16.83;;;6.67;;
10904;SDS011;5505;51.450;9.254;2022-12-07T08:58:02;17.17;;;7.60;;
10904;SDS011;5505;51.450;9.254;2022-12-07T09:00:49;14.43;;;6.53;;
10904;SDS011;5505;51.450;9.254;2022-12-07T09:03:36;15.63;;;7.20;;
10904;SDS011;5505;51.450;9.254;2022-12-07T09:06:23;13.37;;;7.37;;
10904;SDS011;5505;51.450;9.254;2022-12-07T09:09:10;15.83;;;6.90;;
10904;SDS011;5505;51.450;9.254;2022-12-07T09:11:58;11.30;;;7.53;;
10904;SDS011;5505;51.450;9.254;2022-12-07T09:14:47;11.63;;;7.20;;
10904;SDS011;5505;51.450;9.254;2022-12-07T09:17:33;14.50;;;7.17;;
10904;SDS011;5505;51.450;9.254;2022-12-07T09:20:21;12.30;;;6.27;;
10904;SDS011;5505;51.450;9.254;2022-12-07T09:23:07;8.43;;;5.50;;
10904;SDS011;5505;51.450;9.254;2022-12-07T09:25:54;11.17;;;5.90;;
10904;SDS011;5505;51.450;9.254;2022-12-07T09:28:44;9.87;;;5.53;;
10904;SDS011;5505;51.450;9.254;2022-12-07T09:31:32;12.60;;;6.00;;
10904;SDS011;5505;51.450;9.254;2022-12-07T09:34:22;9.43;;;6.00;;
10904;SDS011;5505;51.450;9.254;2022-12-07T09:37:09;12.00;;;5.60;;
10904;SDS011;5505;51.450;9.254;2022-12-07T09:39:56;7.80;;;4.93;;
10904;SDS011;5505;51.450;9.254;2022-12-07T09:42:44;11.10;;;5.43;;
10904;SDS011;5505;51.450;9.254;2022-12-07T09:45:34;9.77;;;5.80;;
10904;SDS011;5505;51.450;9.254;2022-12-07T09:48:26;11.17;;;5.90;;
10904;SDS011;5505;51.450;9.254;2022-12-07T09:51:17;10.63;;;5.60;;
10904;SDS011;5505;51.450;9.254;2022-12-07T09:54:05;7.23;;;5.23;;
10904;SDS011;5505;51.450;9.254;2022-12-07T09:56:52;7.27;;;5.50;;
10904;SDS011;5505;51.450;9.254;2022-12-07T09:59:39;17.67;;;9.43;;
10904;SDS011;5505;51.450;9.254;2022-12-07T10:02:31;9.50;;;5.93;;
10904;SDS011;5505;51.450;9.254;2022-12-07T10:05:24;8.20;;;5.43;;
10904;SDS011;5505;51.450;9.254;2022-12-07T10:08:13;11.53;;;6.70;;
10904;SDS011;5505;51.450;9.254;2022-12-07T10:11:02;10.63;;;6.33;;
10904;SDS011;5505;51.450;9.254;2022-12-07T10:13:55;16.40;;;7.87;;
10904;SDS011;5505;51.450;9.254;2022-12-07T10:16:58;20.17;;;11.00;;
10904;SDS011;5505;51.450;9.254;2022-12-07T10:19:45;13.93;;;6.40;;
10904;SDS011;5505;51.450;9.254;2022-12-07T10:22:33;9.97;;;6.20;;
10904;SDS011;5505;51.450;9.254;2022-12-07T10:25:21;9.37;;;5.60;;
10904;SDS011;5505;51.450;9.254;2022-12-07T10:28:11;9.63;;;6.87;;
10904;SDS011;5505;51.450;9.254;2022-12-07T10:31:00;16.43;;;9.33;;
10904;SDS011;5505;51.450;9.254;2022-12-07T10:33:50;12.50;;;4.97;;
10904;SDS011;5505;51.450;9.254;2022-12-07T10:36:39;8.53;;;5.17;;
10904;SDS011;5505;51.450;9.254;2022-12-07T10:39:27;11.87;;;5.73;;
10904;SDS011;5505;51.450;9.254;2022-12-07T10:42:15;10.83;;;4.97;;
10904;SDS011;5505;51.450;9.254;2022-12-07T10:45:08;8.13;;;4.97;;
10904;SDS011;5505;51.450;9.254;2022-12-07T10:48:00;11.40;;;5.30;;
10904;SDS011;5505;51.450;9.254;2022-12-07T10:50:58;8.60;;;5.50;;
10904;SDS011;5505;51.450;9.254;2022-12-07T10:53:51;9.47;;;4.90;;
10904;SDS011;5505;51.450;9.254;2022-12-07T11:00:16;8.87;;;5.37;;
10904;SDS011;5505;51.450;9.254;2022-12-07T11:03:17;8.20;;;5.70;;
10904;SDS011;5505;51.450;9.254;2022-12-07T11:06:14;13.10;;;5.90;;
10904;SDS011;5505;51.450;9.254;2022-12-07T11:09:25;11.03;;;6.10;;
10904;SDS011;5505;51.450;9.254;2022-12-07T11:12:37;10.30;;;5.80;;
10904;SDS011;5505;51.450;9.254;2022-12-07T11:15:38;10.67;;;6.13;;
10904;SDS011;5505;51.450;9.254;2022-12-07T11:18:39;9.13;;;6.47;;
10904;SDS011;5505;51.450;9.254;2022-12-07T11:21:37;12.87;;;6.20;;
10904;SDS011;5505;51.450;9.254;2022-12-07T11:24:32;12.43;;;5.50;;
10904;SDS011;5505;51.450;9.254;2022-12-07T11:27:28;12.27;;;5.47;;
10904;SDS011;5505;51.450;9.254;2022-12-07T11:30:23;10.90;;;5.60;;
10904;SDS011;5505;51.450;9.254;2022-12-07T11:33:17;7.50;;;4.53;;
10904;SDS011;5505;51.450;9.254;2022-12-07T11:36:10;7.53;;;4.33;;
10904;SDS011;5505;51.450;9.254;2022-12-07T11:39:13;9.23;;;3.53;;
10904;SDS011;5505;51.450;9.254;2022-12-07T11:42:06;8.67;;;4.07;;
10904;SDS011;5505;51.450;9.254;2022-12-07T11:44:59;6.73;;;4.13;;
10904;SDS011;5505;51.450;9.254;2022-12-07T11:47:51;7.00;;;3.90;;
10904;SDS011;5505;51.450;9.254;2022-12-07T11:50:42;4.87;;;3.53;;
10904;SDS011;5505;51.450;9.254;2022-12-07T11:53:33;7.60;;;4.00;;
10904;SDS011;5505;51.450;9.254;2022-12-07T11:56:25;7.40;;;3.73;;
10904;SDS011;5505;51.450;9.254;2022-12-07T11:59:15;15.43;;;6.37;;
10904;SDS011;5505;51.450;9.254;2022-12-07T12:02:10;7.17;;;4.40;;
10904;SDS011;5505;51.450;9.254;2022-12-07T12:05:01;9.07;;;4.33;;
10904;SDS011;5505;51.450;9.254;2022-12-07T12:08:01;6.47;;;3.73;;
10904;SDS011;5505;51.450;9.254;2022-12-07T12:11:00;7.57;;;4.10;;
10904;SDS011;5505;51.450;9.254;2022-12-07T12:13:59;8.60;;;5.30;;
10904;SDS011;5505;51.450;9.254;2022-12-07T12:17:11;8.20;;;4.07;;
10904;SDS011;5505;51.450;9.254;2022-12-07T12:20:14;8.27;;;4.40;;
10904;SDS011;5505;51.450;9.254;2022-12-07T12:23:11;7.07;;;3.90;;
10904;SDS011;5505;51.450;9.254;2022-12-07T12:26:01;6.73;;;3.60;;
10904;SDS011;5505;51.450;9.254;2022-12-07T12:28:52;5.73;;;3.13;;
10904;SDS011;5505;51.450;9.254;2022-12-07T12:31:43;7.33;;;3.40;;
10904;SDS011;5505;51.450;9.254;2022-12-07T12:34:38;6.93;;;4.10;;
10904;SDS011;5505;51.450;9.254;2022-12-07T12:40:42;8.87;;;4.13;;
10904;SDS011;5505;51.450;9.254;2022-12-07T12:43:39;6.10;;;4.53;;
10904;SDS011;5505;51.450;9.254;2022-12-07T12:46:37;6.73;;;4.47;;
10904;SDS011;5505;51.450;9.254;2022-12-07T12:49:36;7.60;;;5.53;;
10904;SDS011;5505;51.450;9.254;2022-12-07T12:55:54;10.00;;;5.73;;
10904;SDS011;5505;51.450;9.254;2022-12-07T13:02:15;8.50;;;5.80;;
10904;SDS011;5505;51.450;9.254;2022-12-07T13:05:16;8.07;;;4.30;;
10904;SDS011;5505;51.450;9.254;2022-12-07T13:08:11;10.97;;;5.63;;
10904;SDS011;5505;51.450;9.254;2022-12-07T13:11:17;12.40;;;6.87;;
10904;SDS011;5505;51.450;9.254;2022-12-07T13:20:52;10.13;;;4.63;;
10904;SDS011;5505;51.450;9.254;2022-12-07T13:23:51;8.03;;;4.30;;
10904;SDS011;5505;51.450;9.254;2022-12-07T13:26:43;8.40;;;4.27;;
10904;SDS011;5505;51.450;9.254;2022-12-07T13:29:30;12.63;;;4.80;;
10904;SDS011;5505;51.450;9.254;2022-12-07T13:32:24;7.67;;;4.00;;
10904;SDS011;5505;51.450;9.254;2022-12-07T13:35:31;8.77;;;4.20;;
10904;SDS011;5505;51.450;9.254;2022-12-07T13:38:22;6.77;;;3.57;;
10904;SDS011;5505;51.450;9.254;2022-12-07T13:41:12;6.30;;;3.70;;
10904;SDS011;5505;51.450;9.254;2022-12-07T13:44:03;4.03;;;3.63;;
10904;SDS011;5505;51.450;9.254;2022-12-07T13:47:00;6.50;;;4.23;;
10904;SDS011;5505;51.450;9.254;2022-12-07T13:49:54;5.33;;;4.17;;
10904;SDS011;5505;51.450;9.254;2022-12-07T13:52:43;8.23;;;4.33;;
10904;SDS011;5505;51.450;9.254;2022-12-07T13:55:31;6.50;;;4.30;;
10904;SDS011;5505;51.450;9.254;2022-12-07T13:58:18;9.37;;;4.50;;
10904;SDS011;5505;51.450;9.254;2022-12-07T14:01:06;7.53;;;5.13;;
10904;SDS011;5505;51.450;9.254;2022-12-07T14:03:54;5.57;;;4.10;;
10904;SDS011;5505;51.450;9.254;2022-12-07T14:06:46;7.40;;;4.20;;
10904;SDS011;5505;51.450;9.254;2022-12-07T14:09:35;8.73;;;4.37;;
10904;SDS011;5505;51.450;9.254;2022-12-07T14:12:22;7.77;;;4.50;;
10904;SDS011;5505;51.450;9.254;2022-12-07T14:15:15;9.57;;;5.20;;
10904;SDS011;5505;51.450;9.254;2022-12-07T14:21:14;9.97;;;5.43;;
10904;SDS011;5505;51.450;9.254;2022-12-07T14:24:15;11.43;;;5.30;;
10904;SDS011;5505;51.450;9.254;2022-12-07T14:27:03;9.20;;;5.83;;
10904;SDS011;5505;51.450;9.254;2022-12-07T14:30:04;13.90;;;6.03;;
10904;SDS011;5505;51.450;9.254;2022-12-07T14:32:53;8.67;;;6.00;;
10904;SDS011;5505;51.450;9.254;2022-12-07T14:35:44;12.97;;;7.07;;
10904;SDS011;5505;51.450;9.254;2022-12-07T14:38:31;9.50;;;6.20;;
10904;SDS011;5505;51.450;9.254;2022-12-07T14:41:17;15.77;;;11.07;;
10904;SDS011;5505;51.450;9.254;2022-12-07T14:44:26;13.87;;;7.83;;
10904;SDS011;5505;51.450;9.254;2022-12-07T14:47:13;12.83;;;9.23;;
10904;SDS011;5505;51.450;9.254;2022-12-07T14:50:00;10.30;;;8.17;;
10904;SDS011;5505;51.450;9.254;2022-12-07T14:52:49;8.87;;;4.90;;
10904;SDS011;5505;51.450;9.254;2022-12-07T14:55:40;9.97;;;5.50;;
10904;SDS011;5505;51.450;9.254;2022-12-07T14:58:29;7.70;;;5.03;;
10904;SDS011;5505;51.450;9.254;2022-12-07T15:01:16;6.97;;;4.83;;
10904;SDS011;5505;51.450;9.254;2022-12-07T15:04:02;9.53;;;4.30;;
10904;SDS011;5505;51.450;9.254;2022-12-07T15:06:56;4.80;;;3.93;;
10904;SDS011;5505;51.450;9.254;2022-12-07T15:09:44;8.83;;;4.50;;
10904;SDS011;5505;51.450;9.254;2022-12-07T15:12:31;8.50;;;4.77;;
10904;SDS011;5505;51.450;9.254;2022-12-07T15:15:18;9.90;;;4.17;;
10904;SDS011;5505;51.450;9.254;2022-12-07T15:18:04;11.43;;;5.37;;
10904;SDS011;5505;51.450;9.254;2022-12-07T15:20:51;9.73;;;5.50;;
10904;SDS011;5505;51.450;9.254;2022-12-07T15:23:38;12.97;;;6.10;;
10904;SDS011;5505;51.450;9.254;2022-12-07T15:26:26;9.37;;;5.07;;
10904;SDS011;5505;51.450;9.254;2022-12-07T15:29:13;9.37;;;5.13;;
10904;SDS011;5505;51.450;9.254;2022-12-07T15:32:01;8.60;;;5.33;;
10904;SDS011;5505;51.450;9.254;2022-12-07T15:34:48;12.87;;;5.30;;
10904;SDS011;5505;51.450;9.254;2022-12-07T15:37:36;8.70;;;5.13;;
10904;SDS011;5505;51.450;9.254;2022-12-07T15:40:23;6.27;;;4.37;;
10904;SDS011;5505;51.450;9.254;2022-12-07T15:43:11;7.90;;;4.50;;
10904;SDS011;5505;51.450;9.254;2022-12-07T15:46:12;9.10;;;4.50;;
10904;SDS011;5505;51.450;9.254;2022-12-07T15:48:59;7.33;;;4.30;;
10904;SDS011;5505;51.450;9.254;2022-12-07T15:51:49;6.93;;;4.87;;
10904;SDS011;5505;51.450;9.254;2022-12-07T15:54:35;9.67;;;5.23;;
10904;SDS011;5505;51.450;9.254;2022-12-07T15:57:22;10.47;;;4.77;;
10904;SDS011;5505;51.450;9.254;2022-12-07T16:00:11;8.13;;;5.07;;
10904;SDS011;5505;51.450;9.254;2022-12-07T16:02:59;5.47;;;4.20;;
10904;SDS011;5505;51.450;9.254;2022-12-07T16:05:48;7.27;;;4.40;;
10904;SDS011;5505;51.450;9.254;2022-12-07T16:08:35;10.07;;;4.27;;
10904;SDS011;5505;51.450;9.254;2022-12-07T16:11:22;9.50;;;5.10;;
10904;SDS011;5505;51.450;9.254;2022-12-07T16:14:09;10.67;;;4.67;;
10904;SDS011;5505;51.450;9.254;2022-12-07T16:16:57;9.43;;;5.07;;
10904;SDS011;5505;51.450;9.254;2022-12-07T16:19:44;6.50;;;4.40;;
10904;SDS011;5505;51.450;9.254;2022-12-07T16:22:30;11.13;;;4.87;;
10904;SDS011;5505;51.450;9.254;2022-12-07T16:25:17;8.67;;;4.50;;
10904;SDS011;5505;51.450;9.254;2022-12-07T16:28:04;5.77;;;4.13;;
10904;SDS011;5505;51.450;9.254;2022-12-07T16:30:59;9.33;;;4.80;;
10904;SDS011;5505;51.450;9.254;2022-12-07T16:33:48;7.50;;;4.00;;
10904;SDS011;5505;51.450;9.254;2022-12-07T16:36:35;5.37;;;4.30;;
10904;SDS011;5505;51.450;9.254;2022-12-07T16:39:22;9.23;;;4.73;;
10904;SDS011;5505;51.450;9.254;2022-12-07T16:42:09;8.43;;;4.90;;
10904;SDS011;5505;51.450;9.254;2022-12-07T16:44:56;8.70;;;5.00;;
10904;SDS011;5505;51.450;9.254;2022-12-07T16:47:43;8.67;;;4.70;;
10904;SDS011;5505;51.450;9.254;2022-12-07T16:50:31;9.20;;;5.10;;
10904;SDS011;5505;51.450;9.254;2022-12-07T16:53:18;11.37;;;5.00;;
10904;SDS011;5505;51.450;9.254;2022-12-07T16:56:08;7.13;;;5.03;;
10904;SDS011;5505;51.450;9.254;2022-12-07T16:58:57;8.83;;;4.73;;
10904;SDS011;5505;51.450;9.254;2022-12-07T17:01:44;8.60;;;4.90;;
10904;SDS011;5505;51.450;9.254;2022-12-07T17:04:31;8.53;;;4.97;;
10904;SDS011;5505;51.450;9.254;2022-12-07T17:07:19;12.33;;;5.50;;
10904;SDS011;5505;51.450;9.254;2022-12-07T17:10:06;9.07;;;5.83;;
10904;SDS011;5505;51.450;9.254;2022-12-07T17:12:53;11.40;;;5.80;;
10904;SDS011;5505;51.450;9.254;2022-12-07T17:15:40;9.50;;;5.73;;
10904;SDS011;5505;51.450;9.254;2022-12-07T17:18:27;8.97;;;5.97;;
10904;SDS011;5505;51.450;9.254;2022-12-07T17:21:15;8.47;;;5.50;;
10904;SDS011;5505;51.450;9.254;2022-12-07T17:24:04;9.10;;;6.13;;
10904;SDS011;5505;51.450;9.254;2022-12-07T17:26:52;11.03;;;5.57;;
10904;SDS011;5505;51.450;9.254;2022-12-07T17:29:39;10.27;;;5.50;;
10904;SDS011;5505;51.450;9.254;2022-12-07T17:32:26;8.77;;;5.67;;
10904;SDS011;5505;51.450;9.254;2022-12-07T17:35:12;9.17;;;5.83;;